Forside
METAR-TAF:

METAR-TAF

Lufthavne :

Vancouver International Airport

Vancouver, Britisk Columbia, Canada

Breddekreds: 49-11N, længdekreds: 123-10W, højde: 3 m

Aktuelle vejr

Denne rapport blev lavet for 53 minutter siden, kl. 03:00 UTC
Vind 6 kt fra vestnordvest
Temperatur 22°C
Fugtighed 69%
Tryk 1019 hPa
Sigt: 48.3 km
skyfri

METAR: CYVR 230300Z 29006KT 30SM SKC 22/16 A3009 RMK SLP191 DENSITY ALT 600FT

Tid: 20:53 (03:53 UTC)

Vejrudsigter

Denne rapport blev lavet for 1 time og 15 minutter siden, kl. 02:38 UTC
Foreløbig gælder fra 23 på 03 UTC til 24 på 06 UTC
Vind 5 kt fra vest
Sigt: 10 km
skyfri
Fra 23 på 0900 UTC
Vind 6 kt fra øst
Sigt: 10 km
skyfri
ændring
fra 23 på 15 UTC til 23 på 17 UTC
Vind 10 kt fra vest
ændring
fra 24 på 03 UTC til 24 på 05 UTC
Vind 3 kt fra varierende retninger

TAF: CYVR 230238Z 2303/2406 28005KT P6SM SKC FM230900 10006KT P6SM SKC BECMG 2315/2317 27010KT BECMG 2403/2405 VRB03KT RMK NXT FCST BY 230600Z

Vejrobservationer og prognoser fra mere end 4000 lufthavne (METAR og TAF).

De gule og røde prikker repræsenterer de meteorologiske stationer.

Flyt musen over at se navnet på stationen.

Så klik over at se vejr observationer og prognoser.

At skifte det kort: Klik på de grønne knapper med et sort kors for at zoome ind; på den grønne knap med en bindestreg for at zoome ud; eller på de grønne pile for tilstødende kort.


METAR-TAF: